• Join FlightAware (Why Join?)
  • Login
  • US Flag 
08:32PM EST


 

Airport Tracker/Info


-or-


 

Live Flight TrackerFlight Track Log ✈ KAP826 ✈ 18-Jul-2014 ✈ TJSJ / SJU - TUPJ / EIS

Flight Track Log - Related Links

Times and Time Zones

All times are in EDT time to prevent confusion due to time zone crossing. See the KAP826 flight status page for this flight to view local times or setup timezone preferences in your user account.

Time Position Orientation Groundspeed Altitude Reporting Facility
EDT Latitude Longitude Course Direction KTS MPH feet Rate Location/Type
08:18PM 18.4333 -65.9667 62° Northeast 110 127 800  Level San Juan Center
08:19PM 18.4500 -65.9333 62° Northeast 120 138 1,600 720 Climbing San Juan Center
08:20PM 18.4500 -65.9000 90° East 130 150 2,300 600 Climbing San Juan Center
08:21PM 18.4500 -65.8667 90° East 150 173 2,800 480 Climbing San Juan Center
08:22PM 18.4500 -65.8167 90° East 150 173 3,300 480 Climbing San Juan Center
08:23PM 18.4500 -65.7667 90° East 150 173 3,800 480 Climbing San Juan Center
08:24PM 18.4500 -65.7333 90° East 150 173 4,300 420 Climbing San Juan Center
08:25PM 18.4500 -65.6833 90° East 150 173 4,700 300 Climbing San Juan Center
08:26PM 18.4500 -65.6333 90° East 160 184 5,000 120 Climbing San Juan Center
08:27PM 18.4500 -65.5833 90° East 170 196 5,000  Level San Juan Center
08:28PM 18.4500 -65.5500 90° East 160 184 5,000  Level San Juan Center
08:29PM 18.4500 -65.5000 90° East 160 184 5,000  Level San Juan Center
08:30PM 18.4500 -65.4500 90° East 160 184 5,000  Level San Juan Center
08:31PM 18.4500 -65.4000 90° East 160 184 5,000  Level San Juan Center
08:32PM 18.4500 -65.3500 90° East 160 184 5,000  Level San Juan Center
08:33PM 18.4500 -65.3000 90° East 160 184 5,000  Level San Juan Center
08:34PM 18.4500 -65.2667 90° East 160 184 5,000  Level San Juan Center
08:35PM 18.4500 -65.2167 90° East 160 184 5,000 -180 Level San Juan Center
08:36PM 18.4333 -65.1667 109° East 160 184 4,700 -300 Descending San Juan Center
08:37PM 18.4500 -65.1167 71° East 170 196 4,400 -300 Descending San Juan Center
08:38PM 18.4333 -65.0667 109° East 170 196 4,100 -300 Descending San Juan Center
08:39PM 18.4333 -65.0167 90° East 170 196 3,800 -300 Descending San Juan Center
08:40PM 18.4333 -64.9667 90° East 160 184 3,500 -300 Descending San Juan Center
08:41PM 18.4167 -64.9333 118° Southeast 160 184 3,200 -300 Descending San Juan Center
08:42PM 18.4167 -64.8833 90° East 160 184 2,900 -240 Descending San Juan Center
08:43PM 18.4000 -64.8333 109° East 160 184 2,800 -180 Descending San Juan Center
08:44PM 18.3833 -64.7833 109° East 150 173 2,600 -300 Descending San Juan Center
08:45PM 18.3833 -64.7500 90° East 160 184 2,300 -300 Descending San Juan Center
08:46PM 18.3667 -64.7000 109° East 170 196 2,000 -300 Descending San Juan Center
08:47PM 18.3667 -64.6500 90° East 150 173 1,700 -300 Descending San Juan Center
08:48PM 18.3833 -64.6167 62° Northeast 150 173 1,400 -300 Descending San Juan Center
08:49PM 18.4000 -64.5833 62° Northeast 140 161 1,200 -240 Descending San Juan Center